Cuaca Aktual Bandara Mali

Waktu Pengamatan : 2021-08-05 09:00:00 WITA


DAY-CLEAR
Cerah
Suhu Udara
29 °C
Titik Embun
21 °C

Tekanan Udara 1015 hPa
Jarak Pandang >=10 km

Utara
Arah Angin
dari Utara
Kec. Angin
3.7 km/jam
METAR Terkini : METAR WATM 050030Z 12002KT CAVOK 28/20 Q1014|NOSIG=